Time;durP1;ratioP1;P1;durP2;ratioP2;P2;SDS_P1;SDS_P2;PMS_P1;PMS_P2;Temp;Humidity;BMP_temperature;BMP_pressure;BME280_temperature;BME280_humidity;BME280_pressure;Samples;Min_cycle;Max_cycle;Signal;HPM_P1;HPM_P2
2021/09/01 00:00:13;;;;;;;10.20;8.17;;;14.60;1.00;;;;;;6029692;23;20464;-81
2021/09/01 00:15:43;;;;;;;9.70;8.70;;;14.50;1.00;;;;;;6068434;23;20422;-81
2021/09/01 00:19:05;;;;;;;9.87;8.50;;;14.50;1.00;;;;;;6070054;23;20410;-80
2021/09/01 00:21:56;;;;;;;10.67;9.40;;;14.50;1.00;;;;;;6096811;23;20451;-81
2021/09/01 00:25:02;;;;;;;;;;;;;;;;;;;;;
2021/09/01 00:43:34;;;;;;;10.73;9.70;;;14.50;1.00;;;;;;6010807;23;20531;-81
2021/09/01 00:59:06;;;;;;;11.20;8.90;;;14.50;1.00;;;;;;6002396;23;21536;-81
2021/09/01 01:02:02;;;;;;;10.30;9.00;;;14.50;1.00;;;;;;5995485;23;20486;-81
2021/09/01 01:08:24;;;;;;;11.00;9.90;;;14.50;1.00;;;;;;5998150;23;20506;-80
2021/09/01 01:11:17;;;;;;;11.03;9.93;;;14.50;1.00;;;;;;6138691;23;20420;-82
2021/09/01 01:23:31;;;;;;;10.93;9.93;;;14.50;1.00;;;;;;6133688;23;20398;-82
2021/09/01 01:26:15;;;;;;;11.47;10.27;;;14.50;1.00;;;;;;6169422;23;20573;-82
2021/09/01 01:29:13;;;;;;;11.20;10.10;;;14.50;1.00;;;;;;6148101;23;20408;-82
2021/09/01 01:31:49;;;;;;;11.60;10.40;;;14.50;1.00;;;;;;6146698;23;20478;-82
2021/09/01 01:34:27;;;;;;;11.70;10.50;;;14.60;1.00;;;;;;6150666;23;20399;-82
2021/09/01 01:40:31;;;;;;;12.70;11.40;;;14.50;1.00;;;;;;6148259;23;20456;-83
2021/09/01 01:43:39;;;;;;;12.10;9.60;;;14.60;1.00;;;;;;6172108;23;20371;-81
2021/09/01 01:46:11;;;;;;;13.17;10.90;;;14.60;1.00;;;;;;6146791;23;20565;-81
2021/09/01 01:55:03;;;;;;;11.10;10.00;;;14.60;1.00;;;;;;6144809;23;20466;-82
2021/09/01 01:57:41;;;;;;;11.50;10.30;;;14.50;1.00;;;;;;6145249;23;20413;-82
2021/09/01 02:03:21;;;;;;;11.77;10.57;;;14.50;1.00;;;;;;6145371;23;20640;-80
2021/09/01 02:06:06;;;;;;;12.40;11.10;;;14.50;1.00;;;;;;6146819;23;20439;-83
2021/09/01 02:09:22;;;;;;;13.37;11.70;;;14.50;1.00;;;;;;6169532;23;20399;-79
2021/09/01 02:16:19;;;;;;;13.00;10.97;;;14.50;1.00;;;;;;5992465;23;20434;-80
2021/09/01 02:19:39;;;;;;;11.73;10.50;;;14.50;1.00;;;;;;6063221;23;20434;-82
2021/09/01 02:26:49;;;;;;;;;;;;;;;;;;;;;
2021/09/01 02:33:05;;;;;;;12.43;10.47;;;14.50;1.00;;;;;;6131597;23;20406;-81
2021/09/01 02:35:39;;;;;;;11.97;10.60;;;14.50;1.00;;;;;;6152580;23;20478;-82
2021/09/01 02:38:18;;;;;;;11.83;10.70;;;14.50;1.00;;;;;;6150539;23;20951;-83
2021/09/01 02:41:02;;;;;;;12.27;10.10;;;14.50;1.00;;;;;;6149810;23;20410;-81
2021/09/01 02:43:46;;;;;;;13.80;11.37;;;14.40;1.00;;;;;;6150244;23;20924;-81
2021/09/01 02:46:33;;;;;;;12.60;10.30;;;14.40;1.00;;;;;;6149554;23;20410;-81
2021/09/01 03:10:37;;;;;;;12.23;10.33;;;14.40;1.00;;;;;;6106067;23;20416;-83
2021/09/01 03:13:22;;;;;;;14.17;12.73;;;14.40;1.00;;;;;;6122946;23;20479;-82
2021/09/01 03:16:01;;;;;;;12.60;11.37;;;14.50;1.00;;;;;;6120923;23;20407;-82
2021/09/01 03:18:38;;;;;;;12.80;11.37;;;14.50;1.00;;;;;;6120109;23;20411;-82
2021/09/01 03:21:36;;;;;;;13.50;12.20;;;14.50;1.00;;;;;;6122077;23;20469;-80
2021/09/01 03:24:17;;;;;;;13.70;12.30;;;14.40;1.00;;;;;;6152077;23;20438;-82
2021/09/01 03:26:57;;;;;;;12.67;11.47;;;14.40;1.00;;;;;;6130722;23;20399;-81
2021/09/01 03:29:49;;;;;;;12.60;11.23;;;14.40;1.00;;;;;;6128820;23;20433;-83
2021/09/01 03:35:52;;;;;;;14.97;12.87;;;14.20;1.00;;;;;;6134164;23;20411;-80
2021/09/01 03:45:04;;;;;;;14.87;13.20;;;14.20;1.00;;;;;;6089068;23;20721;-82
2021/09/01 03:48:09;;;;;;;15.00;13.40;;;14.10;1.00;;;;;;6117438;23;20708;-80
2021/09/01 04:01:31;;;;;;;13.50;11.60;;;14.00;1.00;;;;;;6149732;23;20462;-81
2021/09/01 04:08:30;;;;;;;13.47;11.80;;;14.00;1.00;;;;;;6124441;23;21525;-82
2021/09/01 04:10:59;;;;;;;13.93;12.50;;;13.90;1.00;;;;;;6114662;23;20426;-82
2021/09/01 04:13:27;;;;;;;14.23;12.50;;;13.90;1.00;;;;;;6117262;23;20486;-83
2021/09/01 04:15:53;;;;;;;15.40;13.57;;;13.90;1.00;;;;;;6121987;23;20925;-83
2021/09/01 04:18:20;;;;;;;16.20;13.10;;;13.90;1.00;;;;;;6118590;23;20506;-80
2021/09/01 04:20:47;;;;;;;14.80;13.23;;;13.90;1.00;;;;;;6120505;23;20428;-80
2021/09/01 04:23:13;;;;;;;14.00;12.60;;;13.90;1.00;;;;;;6120947;23;20394;-80
2021/09/01 04:25:40;;;;;;;13.60;12.27;;;13.90;1.00;;;;;;6120219;23;20415;-79
2021/09/01 04:28:07;;;;;;;13.87;12.47;;;13.90;1.00;;;;;;6124562;23;20710;-81
2021/09/01 04:30:35;;;;;;;13.47;12.07;;;13.90;1.00;;;;;;6119901;23;20439;-80
2021/09/01 04:33:01;;;;;;;14.00;12.27;;;13.90;1.00;;;;;;6120222;23;20490;-81
2021/09/01 04:35:29;;;;;;;15.67;12.47;;;14.00;1.00;;;;;;6146082;23;20376;-84
2021/09/01 04:37:56;;;;;;;13.77;12.27;;;14.00;1.00;;;;;;6140679;23;20410;-84
2021/09/01 04:40:23;;;;;;;14.87;12.50;;;14.10;1.00;;;;;;6120701;23;20526;-82
2021/09/01 04:42:49;;;;;;;14.80;13.40;;;14.10;1.00;;;;;;6118991;23;20430;-81
2021/09/01 04:45:16;;;;;;;14.53;12.77;;;14.10;1.00;;;;;;6117818;23;20516;-83
2021/09/01 04:47:44;;;;;;;11.53;10.43;;;14.10;1.00;;;;;;6115045;23;20416;-79
2021/09/01 04:50:11;;;;;;;12.90;11.47;;;14.10;1.00;;;;;;6119364;23;20448;-80
2021/09/01 04:52:38;;;;;;;13.07;11.60;;;14.10;1.00;;;;;;6120811;23;20352;-79
2021/09/01 04:55:06;;;;;;;12.40;11.20;;;14.20;1.00;;;;;;6130936;23;20412;-79
2021/09/01 04:57:33;;;;;;;15.00;13.40;;;14.20;1.00;;;;;;6134810;23;20932;-77
2021/09/01 05:00:01;;;;;;;13.27;11.93;;;14.20;1.00;;;;;;6134900;23;20683;-78
2021/09/01 05:02:28;;;;;;;15.67;13.50;;;14.20;1.00;;;;;;6133827;23;20383;-78
2021/09/01 05:04:56;;;;;;;13.97;11.30;;;14.20;1.00;;;;;;6133323;23;20373;-80
2021/09/01 05:07:22;;;;;;;13.30;11.50;;;14.20;1.00;;;;;;6146466;23;20475;-85
2021/09/01 05:09:49;;;;;;;13.50;12.13;;;14.30;1.00;;;;;;6151313;23;20468;-85
2021/09/01 05:12:16;;;;;;;16.27;13.10;;;14.30;1.00;;;;;;6147826;23;20597;-79
2021/09/01 05:14:43;;;;;;;13.17;11.53;;;14.30;1.00;;;;;;6125838;23;20408;-78
2021/09/01 05:17:10;;;;;;;11.57;10.30;;;14.30;1.00;;;;;;6118728;23;20813;-80
2021/09/01 05:19:37;;;;;;;11.63;9.97;;;14.30;1.00;;;;;;6122215;23;21112;-79
2021/09/01 05:22:07;;;;;;;11.50;10.40;;;14.40;1.00;;;;;;6120733;23;20428;-79
2021/09/01 05:24:40;;;;;;;12.13;11.03;;;14.40;1.00;;;;;;6121678;23;20475;-80
2021/09/01 05:27:10;;;;;;;12.43;11.03;;;14.40;1.00;;;;;;6122514;23;20396;-78
2021/09/01 05:29:41;;;;;;;12.20;10.20;;;14.50;1.00;;;;;;6120733;23;20629;-77
2021/09/01 05:32:13;;;;;;;11.40;10.20;;;14.50;1.00;;;;;;6125088;23;21615;-78
2021/09/01 05:34:42;;;;;;;12.13;10.90;;;14.50;1.00;;;;;;6122170;23;20467;-80
2021/09/01 05:37:13;;;;;;;11.77;10.57;;;14.50;1.00;;;;;;6122514;23;21209;-79
2021/09/01 05:39:42;;;;;;;11.30;10.20;;;14.50;1.00;;;;;;6124711;23;20418;-78
2021/09/01 05:42:10;;;;;;;12.60;10.93;;;14.50;1.00;;;;;;6127909;23;20415;-79
2021/09/01 05:44:40;;;;;;;11.43;10.17;;;14.60;1.00;;;;;;6125125;23;20432;-79
2021/09/01 05:47:08;;;;;;;12.00;10.80;;;14.70;1.00;;;;;;6123740;23;20377;-79
2021/09/01 05:49:36;;;;;;;11.63;9.50;;;14.80;1.00;;;;;;6123104;23;20416;-79
2021/09/01 05:52:05;;;;;;;14.70;12.67;;;14.90;1.00;;;;;;6124487;23;20967;-78
2021/09/01 05:54:33;;;;;;;12.80;11.50;;;15.00;1.00;;;;;;6128365;23;20499;-78
2021/09/01 05:57:08;;;;;;;10.63;9.63;;;15.00;1.00;;;;;;6121842;23;21223;-80
2021/09/01 05:59:42;;;;;;;12.00;10.70;;;15.00;1.00;;;;;;6124730;23;20454;-80
2021/09/01 06:02:14;;;;;;;12.87;10.03;;;15.00;1.00;;;;;;6130640;23;20404;-79
2021/09/01 06:04:44;;;;;;;14.80;11.03;;;15.10;1.00;;;;;;6126469;23;20424;-79
2021/09/01 06:07:13;;;;;;;11.60;10.43;;;15.20;1.00;;;;;;6145162;23;20434;-78
2021/09/01 06:09:43;;;;;;;11.37;10.23;;;15.30;1.00;;;;;;6154039;23;20400;-78
2021/09/01 06:12:13;;;;;;;13.97;11.53;;;15.40;1.00;;;;;;6152956;23;20368;-77
2021/09/01 06:14:40;;;;;;;10.30;9.20;;;15.40;1.00;;;;;;6153052;23;20357;-77
2021/09/01 06:17:07;;;;;;;11.90;9.93;;;15.40;1.00;;;;;;6153250;23;20380;-77
2021/09/01 06:19:34;;;;;;;10.97;9.60;;;15.50;1.00;;;;;;6151878;23;20389;-78
2021/09/01 06:22:00;;;;;;;15.50;11.07;;;15.50;1.00;;;;;;6153877;23;20401;-79
2021/09/01 06:24:27;;;;;;;10.67;9.57;;;15.60;1.00;;;;;;6150906;23;20356;-77
2021/09/01 06:26:55;;;;;;;15.93;10.07;;;15.70;1.00;;;;;;6150745;23;20386;-77
2021/09/01 06:29:21;;;;;;;11.80;9.80;;;15.80;1.00;;;;;;6149722;23;20448;-78
2021/09/01 06:31:48;;;;;;;12.93;11.37;;;15.80;1.00;;;;;;6150098;23;20396;-77
2021/09/01 06:34:15;;;;;;;19.83;11.97;;;16.00;1.00;;;;;;6150353;23;20373;-78
2021/09/01 06:36:41;;;;;;;12.50;10.40;;;16.00;1.00;;;;;;6149309;23;20386;-78
2021/09/01 06:39:08;;;;;;;11.87;10.57;;;16.10;1.00;;;;;;6148016;23;20420;-78
2021/09/01 06:41:35;;;;;;;11.50;10.17;;;16.20;1.00;;;;;;6147771;23;20369;-77
2021/09/01 06:44:03;;;;;;;12.53;10.40;;;16.30;1.00;;;;;;6146247;23;20368;-79
2021/09/01 06:46:29;;;;;;;12.53;10.70;;;16.30;1.00;;;;;;6143378;23;20497;-77
2021/09/01 06:48:56;;;;;;;10.93;9.70;;;16.40;1.00;;;;;;6143510;23;20469;-77
2021/09/01 06:51:23;;;;;;;11.17;9.47;;;16.40;1.00;;;;;;6143597;23;20404;-78
2021/09/01 06:53:50;;;;;;;12.47;10.17;;;16.50;1.00;;;;;;6140595;23;20397;-79
2021/09/01 06:56:17;;;;;;;10.63;9.53;;;16.60;1.00;;;;;;6138914;23;20505;-78
2021/09/01 06:58:43;;;;;;;12.13;10.10;;;16.70;1.00;;;;;;6138005;23;20434;-79
2021/09/01 07:01:11;;;;;;;10.30;9.03;;;16.70;1.00;;;;;;6136268;23;20406;-76
2021/09/01 07:03:38;;;;;;;10.70;9.70;;;16.80;1.00;;;;;;6133046;23;20430;-78
2021/09/01 07:06:06;;;;;;;10.60;9.00;;;16.90;1.00;;;;;;6128800;23;21294;-78
2021/09/01 07:08:33;;;;;;;18.27;9.90;;;16.90;1.00;;;;;;6130310;23;20410;-78
2021/09/01 07:10:59;;;;;;;13.43;9.13;;;16.90;1.00;;;;;;6129440;23;20403;-79
2021/09/01 07:13:26;;;;;;;11.57;10.37;;;16.90;1.00;;;;;;6125889;23;20418;-79
2021/09/01 07:15:53;;;;;;;11.13;9.60;;;17.00;1.00;;;;;;6126497;23;20452;-81
2021/09/01 07:18:21;;;;;;;10.70;9.50;;;17.10;1.00;;;;;;6125444;23;20512;-80
2021/09/01 07:20:47;;;;;;;10.97;9.67;;;17.30;1.00;;;;;;6129266;23;21216;-79
2021/09/01 07:23:16;;;;;;;11.60;9.17;;;17.40;1.00;;;;;;6126807;23;20406;-78
2021/09/01 07:25:43;;;;;;;10.10;8.70;;;17.50;1.00;;;;;;6126634;23;21224;-79
2021/09/01 07:28:10;;;;;;;10.17;8.73;;;17.60;1.00;;;;;;6125522;23;20414;-80
2021/09/01 07:30:36;;;;;;;10.80;9.17;;;17.60;1.00;;;;;;6126372;23;20493;-80
2021/09/01 07:33:03;;;;;;;11.23;8.73;;;17.70;1.00;;;;;;6124746;23;20424;-78
2021/09/01 07:35:31;;;;;;;9.67;8.03;;;17.80;1.00;;;;;;6126383;23;20482;-82
2021/09/01 07:37:58;;;;;;;10.37;9.37;;;18.00;1.00;;;;;;6127416;23;20403;-81
2021/09/01 07:40:25;;;;;;;10.43;8.60;;;18.20;1.00;;;;;;6125745;23;20506;-81
2021/09/01 07:42:52;;;;;;;10.77;8.33;;;18.40;1.00;;;;;;6130895;23;20439;-81
2021/09/01 07:45:20;;;;;;;10.30;9.20;;;18.50;1.00;;;;;;6134752;23;20396;-78
2021/09/01 07:47:49;;;;;;;10.00;7.97;;;18.70;1.00;;;;;;6144668;23;20449;-78
2021/09/01 07:50:16;;;;;;;11.07;8.97;;;18.70;1.00;;;;;;6129750;23;20655;-78
2021/09/01 07:52:44;;;;;;;11.90;9.30;;;18.60;1.00;;;;;;6127286;23;21507;-79
2021/09/01 07:55:12;;;;;;;9.70;8.70;;;18.50;1.00;;;;;;6129007;23;20495;-79
2021/09/01 07:57:39;;;;;;;8.50;7.80;;;18.50;1.00;;;;;;6124309;23;20442;-81
2021/09/01 08:00:08;;;;;;;11.40;8.13;;;18.60;1.00;;;;;;6127633;23;20392;-80
2021/09/01 08:02:35;;;;;;;12.23;8.47;;;18.80;1.00;;;;;;6125490;23;20854;-79
2021/09/01 08:05:01;;;;;;;9.17;8.27;;;18.90;1.00;;;;;;6125859;23;20419;-79
2021/09/01 08:07:28;;;;;;;11.83;10.53;;;19.00;1.00;;;;;;6124854;23;20399;-79
2021/09/01 08:09:56;;;;;;;9.83;8.60;;;19.10;1.00;;;;;;6125772;23;20713;-79
2021/09/01 08:12:23;;;;;;;10.30;8.97;;;19.20;1.00;;;;;;6124387;23;20486;-80
2021/09/01 08:14:50;;;;;;;11.80;8.87;;;19.40;1.00;;;;;;6127913;23;20432;-78
2021/09/01 08:17:17;;;;;;;12.30;8.47;;;19.60;1.00;;;;;;6127033;23;20411;-80
2021/09/01 08:19:45;;;;;;;9.87;8.07;;;19.70;1.00;;;;;;6126560;23;20972;-78
2021/09/01 08:22:13;;;;;;;9.40;8.20;;;19.80;1.00;;;;;;6125562;23;20428;-82
2021/09/01 08:24:40;;;;;;;14.10;8.50;;;19.90;1.00;;;;;;6151277;23;20403;-80
2021/09/01 08:27:10;;;;;;;12.43;9.90;;;20.10;1.00;;;;;;6126137;23;21654;-79
2021/09/01 08:29:37;;;;;;;10.43;9.43;;;20.10;1.00;;;;;;6128767;23;20479;-80
2021/09/01 08:32:05;;;;;;;13.10;9.37;;;20.20;1.00;;;;;;6129958;23;20396;-79
2021/09/01 08:34:32;;;;;;;10.07;8.43;;;20.30;1.00;;;;;;6130594;23;21144;-80
2021/09/01 08:37:00;;;;;;;11.17;9.00;;;20.30;1.00;;;;;;6127932;23;20495;-80
2021/09/01 08:39:27;;;;;;;11.53;9.33;;;20.30;1.00;;;;;;6127049;23;20423;-81
2021/09/01 08:41:53;;;;;;;14.10;10.07;;;20.20;1.00;;;;;;6125585;23;20437;-78
2021/09/01 08:44:22;;;;;;;10.63;8.63;;;20.20;1.00;;;;;;6126598;23;20397;-80
2021/09/01 08:46:50;;;;;;;10.20;9.30;;;20.30;1.00;;;;;;6144204;23;20407;-79
2021/09/01 08:49:18;;;;;;;11.23;10.03;;;20.40;1.00;;;;;;6142271;23;20420;-81
2021/09/01 08:51:46;;;;;;;18.53;11.53;;;20.40;1.00;;;;;;6128257;23;20533;-80
2021/09/01 08:54:14;;;;;;;11.03;9.97;;;20.30;1.00;;;;;;6126700;23;20432;-80
2021/09/01 08:56:41;;;;;;;12.73;10.57;;;20.20;1.00;;;;;;6128482;23;20496;-79
2021/09/01 08:59:08;;;;;;;15.07;10.07;;;20.10;1.00;;;;;;6123154;23;20412;-78
2021/09/01 09:01:44;;;;;;;16.83;11.80;;;20.10;1.00;;;;;;6136721;23;20427;-78
2021/09/01 09:04:19;;;;;;;13.47;10.97;;;20.00;1.00;;;;;;6127952;23;20361;-80
2021/09/01 09:06:50;;;;;;;12.70;10.60;;;19.90;1.00;;;;;;6127806;23;20403;-79
2021/09/01 09:09:18;;;;;;;12.23;10.90;;;19.70;1.00;;;;;;6126857;23;20388;-80
2021/09/01 09:11:45;;;;;;;13.57;12.07;;;19.50;1.00;;;;;;6123845;23;20904;-77
2021/09/01 09:14:20;;;;;;;12.13;10.90;;;19.40;1.00;;;;;;6126813;23;20407;-79
2021/09/01 09:17:04;;;;;;;16.20;11.97;;;19.20;1.00;;;;;;6128896;23;20403;-80
2021/09/01 09:19:45;;;;;;;13.07;11.70;;;19.30;1.00;;;;;;6131775;23;20447;-80
2021/09/01 09:22:12;;;;;;;14.47;12.97;;;19.40;1.00;;;;;;6129405;23;20459;-80
2021/09/01 09:24:39;;;;;;;13.00;11.80;;;19.40;1.00;;;;;;6139990;23;20397;-80
2021/09/01 09:27:16;;;;;;;14.47;12.10;;;19.60;1.00;;;;;;6151094;23;20428;-78
2021/09/01 09:29:43;;;;;;;13.73;12.20;;;20.00;1.00;;;;;;6149005;23;20413;-78
2021/09/01 09:32:11;;;;;;;12.93;11.73;;;20.40;1.00;;;;;;6146150;23;20439;-77
2021/09/01 09:34:41;;;;;;;13.60;12.20;;;20.30;1.00;;;;;;6147167;23;20392;-80
2021/09/01 09:37:09;;;;;;;13.80;12.30;;;20.20;1.00;;;;;;6147704;23;20386;-79
2021/09/01 09:39:44;;;;;;;15.57;13.17;;;19.80;1.00;;;;;;6146382;23;20388;-79
2021/09/01 09:42:12;;;;;;;14.60;11.97;;;19.70;1.00;;;;;;6148354;23;20407;-78
2021/09/01 09:44:39;;;;;;;14.40;12.90;;;19.80;1.00;;;;;;6145544;23;20412;-78
2021/09/01 09:47:06;;;;;;;26.03;21.00;;;20.00;1.00;;;;;;6136734;23;20478;-79
2021/09/01 09:49:35;;;;;;;14.23;12.57;;;20.10;1.00;;;;;;6134955;23;20408;-78
2021/09/01 09:52:13;;;;;;;14.80;13.27;;;20.20;1.00;;;;;;6129980;23;20405;-80
2021/09/01 09:54:40;;;;;;;14.30;12.90;;;20.30;1.00;;;;;;6153458;23;21407;-79
2021/09/01 09:57:09;;;;;;;13.40;12.10;;;20.20;1.00;;;;;;6127606;23;20404;-79
2021/09/01 09:59:37;;;;;;;13.13;11.83;;;20.10;1.00;;;;;;6126763;23;21061;-80
2021/09/01 10:02:04;;;;;;;15.30;13.80;;;19.90;1.00;;;;;;6124231;23;21303;-79
2021/09/01 10:04:31;;;;;;;15.13;13.00;;;19.60;1.00;;;;;;6127018;23;21250;-80
2021/09/01 10:07:01;;;;;;;14.83;13.30;;;19.40;1.00;;;;;;6127131;23;20487;-85
2021/09/01 10:09:28;;;;;;;13.10;11.70;;;20.00;1.00;;;;;;6131239;23;20709;-78
2021/09/01 10:11:58;;;;;;;17.00;13.33;;;20.70;1.00;;;;;;6124723;23;20404;-80
2021/09/01 10:14:25;;;;;;;15.23;13.63;;;20.70;1.00;;;;;;6127279;23;20400;-79
2021/09/01 10:17:01;;;;;;;15.13;13.53;;;20.60;1.00;;;;;;6126367;23;20390;-81
2021/09/01 10:19:30;;;;;;;13.97;12.23;;;21.20;1.00;;;;;;6128329;23;20411;-80
2021/09/01 10:22:05;;;;;;;14.30;12.90;;;21.30;1.00;;;;;;6125641;23;20438;-79
2021/09/01 10:24:33;;;;;;;14.00;12.60;;;21.00;1.00;;;;;;6126578;23;20395;-80
2021/09/01 10:27:09;;;;;;;14.77;13.20;;;20.80;1.00;;;;;;6124744;23;20411;-79
2021/09/01 10:29:42;;;;;;;12.70;11.60;;;21.00;1.00;;;;;;6125299;23;20492;-78
2021/09/01 10:32:24;;;;;;;13.23;11.67;;;21.30;1.00;;;;;;6125417;23;20429;-80
2021/09/01 10:35:11;;;;;;;12.67;11.30;;;21.30;1.00;;;;;;6126016;23;20411;-80
2021/09/01 10:37:39;;;;;;;12.50;11.30;;;21.50;1.00;;;;;;6149815;23;20898;-78
2021/09/01 10:40:08;;;;;;;13.83;11.97;;;21.80;1.00;;;;;;6128912;23;20421;-79
2021/09/01 10:42:45;;;;;;;13.20;11.80;;;21.80;1.00;;;;;;6138656;23;20444;-79
2021/09/01 10:45:17;;;;;;;13.17;11.77;;;21.40;1.00;;;;;;6145905;23;20413;-79
2021/09/01 10:48:08;;;;;;;14.20;12.70;;;21.00;1.00;;;;;;6129443;23;20421;-80
2021/09/01 10:50:36;;;;;;;14.17;10.60;;;20.70;1.00;;;;;;6126719;23;21069;-80
2021/09/01 10:53:09;;;;;;;11.13;10.03;;;20.80;1.00;;;;;;6126126;23;21279;-80
2021/09/01 10:55:50;;;;;;;13.60;11.97;;;21.00;1.00;;;;;;6127363;23;20468;-79
2021/09/01 10:58:20;;;;;;;10.80;9.80;;;21.10;1.00;;;;;;6126549;23;20986;-79
2021/09/01 11:00:54;;;;;;;11.77;10.57;;;21.30;1.00;;;;;;6127255;23;20464;-79
2021/09/01 11:03:35;;;;;;;11.60;10.50;;;21.40;1.00;;;;;;6125818;23;20424;-82
2021/09/01 11:06:20;;;;;;;10.80;9.73;;;21.40;1.00;;;;;;6131696;23;20405;-80
2021/09/01 11:09:08;;;;;;;11.30;10.20;;;21.00;1.00;;;;;;6126913;23;21261;-81
2021/09/01 11:11:43;;;;;;;12.27;10.27;;;20.70;1.00;;;;;;6124700;23;20437;-81
2021/09/01 11:14:11;;;;;;;12.77;11.50;;;20.70;1.00;;;;;;6124671;23;20478;-80
2021/09/01 11:16:38;;;;;;;11.67;10.43;;;20.90;1.00;;;;;;6126249;23;21138;-80
2021/09/01 11:19:06;;;;;;;11.93;10.73;;;21.20;1.00;;;;;;6127638;23;20410;-80
2021/09/01 11:21:39;;;;;;;13.50;11.50;;;21.40;1.00;;;;;;6128727;23;20485;-85
2021/09/01 11:24:10;;;;;;;12.83;10.20;;;21.20;1.00;;;;;;6127446;23;20452;-80
2021/09/01 11:26:37;;;;;;;13.10;11.83;;;21.00;1.00;;;;;;6133162;23;20395;-83
2021/09/01 11:29:06;;;;;;;12.23;10.93;;;20.80;1.00;;;;;;6130049;23;20828;-79
2021/09/01 11:31:33;;;;;;;12.30;11.00;;;20.70;1.00;;;;;;6130187;23;20388;-78
2021/09/01 11:34:01;;;;;;;16.47;12.40;;;20.60;1.00;;;;;;6132879;23;20410;-81
2021/09/01 11:36:30;;;;;;;13.03;11.50;;;20.50;1.00;;;;;;6126303;23;20694;-80
2021/09/01 11:38:58;;;;;;;13.30;12.00;;;20.40;1.00;;;;;;6125633;23;20434;-82
2021/09/01 11:41:28;;;;;;;12.90;11.60;;;20.40;1.00;;;;;;6133387;23;20388;-81
2021/09/01 11:43:59;;;;;;;12.73;11.43;;;20.60;1.00;;;;;;6130281;23;20392;-81
2021/09/01 11:46:28;;;;;;;12.23;11.03;;;20.60;1.00;;;;;;6149648;23;20355;-81
2021/09/01 11:49:03;;;;;;;13.67;11.97;;;20.60;1.00;;;;;;6149102;23;20409;-82
2021/09/01 11:51:30;;;;;;;12.73;11.43;;;20.70;1.00;;;;;;6125893;23;20822;-80
2021/09/01 11:53:58;;;;;;;13.40;12.10;;;20.80;1.00;;;;;;6128984;23;20509;-80
2021/09/01 11:56:36;;;;;;;12.13;10.93;;;20.80;1.00;;;;;;6124563;23;20455;-80
2021/09/01 11:59:06;;;;;;;12.47;11.13;;;21.10;1.00;;;;;;6132034;23;20420;-80
2021/09/01 12:01:35;;;;;;;13.47;12.17;;;21.20;1.00;;;;;;6130850;23;20364;-80
2021/09/01 12:04:02;;;;;;;11.93;10.73;;;21.10;1.00;;;;;;6133641;23;20422;-82
2021/09/01 12:06:37;;;;;;;12.57;11.27;;;21.10;1.00;;;;;;6135903;23;20442;-82
2021/09/01 12:09:05;;;;;;;13.40;12.00;;;21.10;1.00;;;;;;6137795;23;20401;-82
2021/09/01 12:11:34;;;;;;;12.53;10.73;;;21.30;1.00;;;;;;6134393;23;20513;-82
2021/09/01 12:14:04;;;;;;;10.97;9.97;;;21.40;1.00;;;;;;6134745;23;20465;-81
2021/09/01 12:16:32;;;;;;;12.57;11.37;;;21.40;1.00;;;;;;6134973;23;20965;-81
2021/09/01 12:19:03;;;;;;;12.40;11.23;;;21.40;1.00;;;;;;6136520;23;20485;-82
2021/09/01 12:21:54;;;;;;;11.90;10.70;;;21.60;1.00;;;;;;6129849;23;20419;-82
2021/09/01 12:24:24;;;;;;;12.20;10.90;;;21.90;1.00;;;;;;6127483;23;20378;-80
2021/09/01 12:26:58;;;;;;;11.60;10.40;;;22.20;1.00;;;;;;6124444;23;20430;-81
2021/09/01 12:29:27;;;;;;;12.53;9.70;;;22.40;1.00;;;;;;6127442;23;20388;-80
2021/09/01 12:31:55;;;;;;;9.17;8.23;;;23.00;1.00;;;;;;6128062;23;20417;-80
2021/09/01 12:34:26;;;;;;;11.10;10.07;;;25.30;1.00;;;;;;6129490;23;20394;-81
2021/09/01 12:37:02;;;;;;;11.43;9.60;;;27.50;1.00;;;;;;6126425;23;20405;-81
2021/09/01 12:39:38;;;;;;;9.50;8.63;;;28.30;1.00;;;;;;6127546;23;20426;-81
2021/09/01 12:42:07;;;;;;;10.37;9.37;;;27.60;1.00;;;;;;6126986;23;20464;-80
2021/09/01 12:44:46;;;;;;;11.53;10.40;;;26.50;1.00;;;;;;6126052;23;20429;-80
2021/09/01 12:47:14;;;;;;;9.93;9.03;;;26.00;1.00;;;;;;6133984;23;20466;-80
2021/09/01 12:49:44;;;;;;;10.73;9.60;;;25.50;1.00;;;;;;6152080;23;20367;-80
2021/09/01 12:52:13;;;;;;;9.63;8.73;;;25.00;1.00;;;;;;6150784;23;20378;-83
2021/09/01 12:54:39;;;;;;;11.03;9.93;;;24.70;1.00;;;;;;6130622;23;20514;-83
2021/09/01 12:57:08;;;;;;;10.13;9.23;;;24.50;1.00;;;;;;6131698;23;21256;-86
2021/09/01 12:59:35;;;;;;;11.20;10.10;;;24.30;1.00;;;;;;6137433;23;20462;-87
2021/09/01 13:02:02;;;;;;;9.70;8.80;;;24.10;1.00;;;;;;6131987;23;20477;-88
2021/09/01 13:04:29;;;;;;;12.17;11.07;;;24.20;1.00;;;;;;6134734;23;20416;-87
2021/09/01 13:06:56;;;;;;;11.93;10.73;;;24.50;1.00;;;;;;6132114;23;20378;-86
2021/09/01 13:09:24;;;;;;;9.73;8.83;;;25.00;1.00;;;;;;6131112;23;20405;-86
2021/09/01 13:11:50;;;;;;;9.13;8.23;;;25.80;1.00;;;;;;6130460;23;20393;-85
2021/09/01 13:14:19;;;;;;;13.57;9.13;;;25.80;1.00;;;;;;6132180;23;20381;-86
2021/09/01 13:16:47;;;;;;;9.73;8.90;;;25.20;1.00;;;;;;6135295;23;20432;-85
2021/09/01 13:19:14;;;;;;;8.93;8.00;;;24.60;1.00;;;;;;6132669;23;20415;-86
2021/09/01 13:21:41;;;;;;;9.73;8.83;;;24.30;1.00;;;;;;6158817;23;21086;-87
2021/09/01 13:24:09;;;;;;;8.93;8.03;;;24.60;1.00;;;;;;6137407;23;20412;-87
2021/09/01 13:26:37;;;;;;;8.93;8.03;;;25.60;1.00;;;;;;6137923;23;20436;-88
2021/09/01 13:29:03;;;;;;;7.63;7.03;;;27.20;1.00;;;;;;6133239;23;20489;-88
2021/09/01 13:31:32;;;;;;;11.07;7.80;;;28.70;1.00;;;;;;6132496;23;20612;-88
2021/09/01 13:34:00;;;;;;;8.57;7.50;;;30.30;1.00;;;;;;6134631;23;20411;-87
2021/09/01 13:36:27;;;;;;;8.70;7.60;;;31.40;1.00;;;;;;6132095;23;20406;-87
2021/09/01 13:38:55;;;;;;;8.20;7.40;;;32.40;1.00;;;;;;6133276;23;20403;-87
2021/09/01 13:41:22;;;;;;;8.00;7.20;;;32.90;1.00;;;;;;6129914;23;20368;-87
2021/09/01 13:43:49;;;;;;;8.60;7.80;;;32.70;1.00;;;;;;6146946;23;20394;-87
2021/09/01 13:46:16;;;;;;;8.00;7.30;;;32.10;1.00;;;;;;6167540;23;20417;-86
2021/09/01 13:48:45;;;;;;;9.03;8.13;;;30.90;1.00;;;;;;6137197;23;20607;-87
2021/09/01 13:51:12;;;;;;;8.23;7.43;;;30.10;1.00;;;;;;6138377;23;20383;-85
2021/09/01 13:53:39;;;;;;;9.30;7.80;;;29.70;1.00;;;;;;6155412;23;20417;-87
2021/09/01 13:56:07;;;;;;;8.67;7.40;;;29.10;1.00;;;;;;6149664;23;20444;-87
2021/09/01 13:58:34;;;;;;;9.17;8.30;;;28.50;1.00;;;;;;6132680;23;20437;-85
2021/09/01 14:01:01;;;;;;;8.93;7.73;;;27.60;1.00;;;;;;6131354;23;21156;-87
2021/09/01 14:03:33;;;;;;;9.13;8.23;;;27.40;1.00;;;;;;6133290;23;20450;-87
2021/09/01 14:06:01;;;;;;;9.87;7.97;;;27.20;1.00;;;;;;6133659;23;20364;-87
2021/09/01 14:08:29;;;;;;;9.40;8.60;;;27.10;1.00;;;;;;6135869;23;20419;-86
2021/09/01 14:10:57;;;;;;;12.43;11.30;;;26.70;1.00;;;;;;6138722;23;20417;-86
2021/09/01 14:13:24;;;;;;;8.33;7.53;;;26.20;1.00;;;;;;6134306;23;20442;-88
2021/09/01 14:15:51;;;;;;;9.10;8.20;;;26.00;1.00;;;;;;6133705;23;20397;-87
2021/09/01 14:18:18;;;;;;;12.63;7.80;;;25.60;1.00;;;;;;6133450;23;20449;-88
2021/09/01 14:20:45;;;;;;;9.43;8.53;;;25.20;1.00;;;;;;6133678;23;20429;-85
2021/09/01 14:23:13;;;;;;;9.77;8.80;;;24.90;1.00;;;;;;6135565;23;21185;-88
2021/09/01 14:25:40;;;;;;;10.00;9.00;;;24.70;1.00;;;;;;6136295;23;20392;-87
2021/09/01 14:28:08;;;;;;;12.50;10.10;;;24.50;1.00;;;;;;6154587;23;20363;-85
2021/09/01 14:30:37;;;;;;;8.63;7.80;;;24.30;1.00;;;;;;6145439;23;20403;-86
2021/09/01 14:33:04;;;;;;;9.73;8.40;;;24.20;1.00;;;;;;6131248;23;20478;-86
2021/09/01 14:35:31;;;;;;;8.53;7.73;;;24.00;1.00;;;;;;6137439;23;21392;-87
2021/09/01 14:38:00;;;;;;;8.47;7.63;;;23.90;1.00;;;;;;6133941;23;20406;-86
2021/09/01 14:40:29;;;;;;;11.63;8.70;;;23.70;1.00;;;;;;6133784;23;20398;-86
2021/09/01 14:42:57;;;;;;;10.30;8.17;;;23.60;1.00;;;;;;6134351;23;20451;-85
2021/09/01 14:45:25;;;;;;;9.47;8.50;;;23.60;1.00;;;;;;6132735;23;20567;-85
2021/09/01 14:47:51;;;;;;;14.90;9.40;;;23.50;1.00;;;;;;6132265;23;20465;-86
2021/09/01 14:50:18;;;;;;;12.30;8.80;;;23.50;1.00;;;;;;6140192;23;20369;-87
2021/09/01 14:52:45;;;;;;;9.70;8.70;;;23.40;1.00;;;;;;6158265;23;20412;-87
2021/09/01 14:55:12;;;;;;;9.07;8.00;;;23.20;1.00;;;;;;6177913;23;20376;-86
2021/09/01 14:57:42;;;;;;;9.30;8.40;;;23.10;1.00;;;;;;6148136;23;20382;-87
2021/09/01 15:00:11;;;;;;;8.87;7.97;;;23.10;1.00;;;;;;6142053;23;20383;-87
2021/09/01 15:02:39;;;;;;;9.70;7.90;;;23.10;1.00;;;;;;6135679;23;20558;-86
2021/09/01 15:05:08;;;;;;;8.83;8.03;;;23.00;1.00;;;;;;6136780;23;20406;-87
2021/09/01 15:07:34;;;;;;;9.20;8.30;;;23.00;1.00;;;;;;6139357;23;20409;-87
2021/09/01 15:10:02;;;;;;;11.13;8.30;;;22.90;1.00;;;;;;6140371;23;20383;-86
2021/09/01 15:12:29;;;;;;;8.40;7.60;;;22.80;1.00;;;;;;6135278;23;20411;-86